metaf2xml: analysiere und dekodiere METAR, TAF, SYNOP, BUOY und AMDAR

Eine gute Quelle für aktuelle METAR- und TAF-Meldungen ist: http://aviationweather.gov/dataserver

Wird eine Option mit "Id(s)" gewählt und eine oder mehrere Id(s) angegeben, werden Meldungen von der ausgewählten Quelle (oder, falls diese Option gesperrt ist, von dem Server, von dem diese Web-Seite kommt) geholt.


Optionen
Sprache: Deutsch English Español Русский
gib aus als: HTML Text XML (+XSL -> HTML)
hole/zeige: letzte/detailliert alle/Übersicht seit Stunde(n)

METAR, TAF Beispiele: METAR YUDO 090600Z 00000KT CAVOK 22/15 Q1021 NOSIG
TAF YUDO 090600Z 0907/0916 VRB03KT 8000 SKC PROB40 TEMPO 0907/0908 0200 +TSRA FM090800 CAVOK
TAF YUDO 090600Z 090716 VRB03KT 8000 SKC PROB40 TEMPO 0708 0200 +TSRA FM0800 CAVOK
METAR-Meldung oder
TAF-Meldung oder
ICAO Id(s):
hole Meldungen von: NOAA/IWS NOAA/NWS NOAA/ADDS NOAA/ADDS dataserver Ogimet

SYNOP Beispiele: AAXX 09004 08495 11459 30714 10147 20136 30151 40159 58005 60001 70511 83500 92350
BBXX UIDS 18061 99613 70284 41698 61806 10000 40107 57020 70121 86//8 22271 00064
OOXX AAERC 10104 99815 31639 60713 00451 46/// /1511 11185 39739 49798 5//// 90940
Meldung oder
WMO Id(s) oder
SHIP Id(s) oder
MOBIL Id(s):
hole Meldungen von: NOAA/NWS College of DuPage Ogimet

BUOY Beispiele: ZZYY 47503 02031 2206/ 769820 097173 6112/ 444 20120 02031 2201/ 500// 9/000
Meldung oder
WMO Id(s):
hole Meldungen von: NOAA/NWS Ogimet

AMDAR Beispiele: AMDAR 1605 ASC AFZA51 2624S 02759E 160414 F156 MS048 278/034 TB0 S031 333 F/// VG010
Meldung oder
Flugzeug Id(s):
hole Meldungen von: NOAA/NWS

copyright (c) 2006-2016 metaf2xml @ SourceForge.net Logo